sensor_id;sensor_type;location;lat;lon;timestamp;P1;durP1;ratioP1;P2;durP2;ratioP2
20609;SDS011;10463;52.378;9.688;2023-08-06T00:00:59;2.30;;;1.53;;
20609;SDS011;10463;52.378;9.688;2023-08-06T00:03:45;2.10;;;1.30;;
20609;SDS011;10463;52.378;9.688;2023-08-06T00:06:29;2.00;;;1.30;;
20609;SDS011;10463;52.378;9.688;2023-08-06T00:09:14;1.50;;;1.17;;
20609;SDS011;10463;52.378;9.688;2023-08-06T00:11:58;2.00;;;1.60;;
20609;SDS011;10463;52.378;9.688;2023-08-06T00:14:43;2.07;;;1.80;;
20609;SDS011;10463;52.378;9.688;2023-08-06T00:17:28;2.57;;;1.80;;
20609;SDS011;10463;52.378;9.688;2023-08-06T00:20:13;1.90;;;1.33;;
20609;SDS011;10463;52.378;9.688;2023-08-06T00:22:58;2.60;;;1.67;;
20609;SDS011;10463;52.378;9.688;2023-08-06T00:25:43;1.77;;;1.27;;
20609;SDS011;10463;52.378;9.688;2023-08-06T00:28:28;3.20;;;1.90;;
20609;SDS011;10463;52.378;9.688;2023-08-06T00:31:12;2.10;;;1.60;;
20609;SDS011;10463;52.378;9.688;2023-08-06T00:33:57;2.83;;;2.17;;
20609;SDS011;10463;52.378;9.688;2023-08-06T00:36:43;2.07;;;1.70;;
20609;SDS011;10463;52.378;9.688;2023-08-06T00:39:27;2.03;;;1.73;;
20609;SDS011;10463;52.378;9.688;2023-08-06T00:42:12;2.23;;;1.90;;
20609;SDS011;10463;52.378;9.688;2023-08-06T00:44:57;2.20;;;1.60;;
20609;SDS011;10463;52.378;9.688;2023-08-06T00:47:42;1.90;;;1.60;;
20609;SDS011;10463;52.378;9.688;2023-08-06T00:50:29;2.73;;;1.83;;
20609;SDS011;10463;52.378;9.688;2023-08-06T00:53:16;2.33;;;1.73;;
20609;SDS011;10463;52.378;9.688;2023-08-06T00:56:00;1.90;;;1.50;;
20609;SDS011;10463;52.378;9.688;2023-08-06T00:58:46;2.00;;;1.80;;
20609;SDS011;10463;52.378;9.688;2023-08-06T01:01:31;2.20;;;1.60;;
20609;SDS011;10463;52.378;9.688;2023-08-06T01:04:16;2.37;;;1.60;;
20609;SDS011;10463;52.378;9.688;2023-08-06T01:07:06;2.30;;;1.97;;
20609;SDS011;10463;52.378;9.688;2023-08-06T01:10:04;1.87;;;1.40;;
20609;SDS011;10463;52.378;9.688;2023-08-06T01:13:05;1.90;;;1.37;;
20609;SDS011;10463;52.378;9.688;2023-08-06T01:15:58;2.10;;;1.80;;
20609;SDS011;10463;52.378;9.688;2023-08-06T01:18:44;2.30;;;1.60;;
20609;SDS011;10463;52.378;9.688;2023-08-06T01:21:34;2.00;;;1.37;;
20609;SDS011;10463;52.378;9.688;2023-08-06T01:24:18;2.47;;;1.47;;
20609;SDS011;10463;52.378;9.688;2023-08-06T01:27:06;2.30;;;1.60;;
20609;SDS011;10463;52.378;9.688;2023-08-06T01:29:59;2.00;;;1.40;;
20609;SDS011;10463;52.378;9.688;2023-08-06T01:32:49;3.20;;;1.77;;
20609;SDS011;10463;52.378;9.688;2023-08-06T01:35:40;2.60;;;1.83;;
20609;SDS011;10463;52.378;9.688;2023-08-06T01:38:27;2.10;;;1.60;;
20609;SDS011;10463;52.378;9.688;2023-08-06T01:41:13;2.77;;;1.40;;
20609;SDS011;10463;52.378;9.688;2023-08-06T01:43:57;1.80;;;1.60;;
20609;SDS011;10463;52.378;9.688;2023-08-06T01:46:42;1.83;;;1.20;;
20609;SDS011;10463;52.378;9.688;2023-08-06T01:49:27;1.80;;;1.53;;
20609;SDS011;10463;52.378;9.688;2023-08-06T01:52:14;2.30;;;2.10;;
20609;SDS011;10463;52.378;9.688;2023-08-06T01:55:01;1.90;;;1.40;;
20609;SDS011;10463;52.378;9.688;2023-08-06T01:57:45;2.03;;;1.63;;
20609;SDS011;10463;52.378;9.688;2023-08-06T02:00:30;2.67;;;1.90;;
20609;SDS011;10463;52.378;9.688;2023-08-06T02:03:15;1.80;;;1.50;;
20609;SDS011;10463;52.378;9.688;2023-08-06T02:05:59;2.53;;;1.60;;
20609;SDS011;10463;52.378;9.688;2023-08-06T02:08:44;2.00;;;1.40;;
20609;SDS011;10463;52.378;9.688;2023-08-06T02:11:30;2.00;;;1.60;;
20609;SDS011;10463;52.378;9.688;2023-08-06T02:14:15;1.83;;;1.37;;
20609;SDS011;10463;52.378;9.688;2023-08-06T02:17:00;1.80;;;1.50;;
20609;SDS011;10463;52.378;9.688;2023-08-06T02:19:44;1.80;;;1.30;;
20609;SDS011;10463;52.378;9.688;2023-08-06T02:22:29;1.90;;;1.50;;
20609;SDS011;10463;52.378;9.688;2023-08-06T02:25:14;2.27;;;1.70;;
20609;SDS011;10463;52.378;9.688;2023-08-06T02:28:02;2.57;;;1.90;;
20609;SDS011;10463;52.378;9.688;2023-08-06T02:30:50;2.77;;;1.67;;
20609;SDS011;10463;52.378;9.688;2023-08-06T02:33:34;2.00;;;1.63;;
20609;SDS011;10463;52.378;9.688;2023-08-06T02:36:19;2.17;;;1.70;;
20609;SDS011;10463;52.378;9.688;2023-08-06T02:39:03;1.70;;;1.30;;
20609;SDS011;10463;52.378;9.688;2023-08-06T02:41:48;1.80;;;1.50;;
20609;SDS011;10463;52.378;9.688;2023-08-06T02:44:34;1.70;;;1.30;;
20609;SDS011;10463;52.378;9.688;2023-08-06T02:47:19;2.10;;;1.50;;
20609;SDS011;10463;52.378;9.688;2023-08-06T02:50:05;1.87;;;1.40;;
20609;SDS011;10463;52.378;9.688;2023-08-06T02:52:50;1.93;;;1.47;;
20609;SDS011;10463;52.378;9.688;2023-08-06T02:55:36;1.80;;;1.47;;
20609;SDS011;10463;52.378;9.688;2023-08-06T02:58:25;2.37;;;1.60;;
20609;SDS011;10463;52.378;9.688;2023-08-06T03:01:23;2.37;;;1.73;;
20609;SDS011;10463;52.378;9.688;2023-08-06T03:04:15;1.97;;;1.43;;
20609;SDS011;10463;52.378;9.688;2023-08-06T03:07:03;2.53;;;1.73;;
20609;SDS011;10463;52.378;9.688;2023-08-06T03:09:55;1.50;;;1.13;;
20609;SDS011;10463;52.378;9.688;2023-08-06T03:12:40;2.37;;;1.60;;
20609;SDS011;10463;52.378;9.688;2023-08-06T03:15:24;2.00;;;1.57;;
20609;SDS011;10463;52.378;9.688;2023-08-06T03:18:12;2.30;;;1.70;;
20609;SDS011;10463;52.378;9.688;2023-08-06T03:20:57;1.87;;;1.50;;
20609;SDS011;10463;52.378;9.688;2023-08-06T03:23:46;2.40;;;1.50;;
20609;SDS011;10463;52.378;9.688;2023-08-06T03:26:34;2.07;;;1.67;;
20609;SDS011;10463;52.378;9.688;2023-08-06T03:29:19;2.50;;;1.57;;
20609;SDS011;10463;52.378;9.688;2023-08-06T03:32:06;1.77;;;1.50;;
20609;SDS011;10463;52.378;9.688;2023-08-06T03:34:54;1.97;;;1.70;;
20609;SDS011;10463;52.378;9.688;2023-08-06T03:37:40;2.17;;;1.40;;
20609;SDS011;10463;52.378;9.688;2023-08-06T03:40:24;1.60;;;1.20;;
20609;SDS011;10463;52.378;9.688;2023-08-06T03:43:09;2.00;;;1.30;;
20609;SDS011;10463;52.378;9.688;2023-08-06T03:45:54;2.27;;;1.40;;
20609;SDS011;10463;52.378;9.688;2023-08-06T03:48:39;1.80;;;1.50;;
20609;SDS011;10463;52.378;9.688;2023-08-06T03:51:26;1.87;;;1.33;;
20609;SDS011;10463;52.378;9.688;2023-08-06T03:54:12;2.50;;;1.80;;
20609;SDS011;10463;52.378;9.688;2023-08-06T03:56:56;2.47;;;1.70;;
20609;SDS011;10463;52.378;9.688;2023-08-06T03:59:41;1.90;;;1.37;;
20609;SDS011;10463;52.378;9.688;2023-08-06T04:02:26;2.20;;;1.30;;
20609;SDS011;10463;52.378;9.688;2023-08-06T04:05:11;1.77;;;1.40;;
20609;SDS011;10463;52.378;9.688;2023-08-06T04:07:58;2.23;;;1.50;;
20609;SDS011;10463;52.378;9.688;2023-08-06T04:10:44;1.97;;;1.47;;
20609;SDS011;10463;52.378;9.688;2023-08-06T04:13:28;2.10;;;1.50;;
20609;SDS011;10463;52.378;9.688;2023-08-06T04:16:15;2.00;;;1.47;;
20609;SDS011;10463;52.378;9.688;2023-08-06T04:18:59;2.40;;;1.73;;
20609;SDS011;10463;52.378;9.688;2023-08-06T04:21:44;1.73;;;1.17;;
20609;SDS011;10463;52.378;9.688;2023-08-06T04:24:30;2.03;;;1.70;;
20609;SDS011;10463;52.378;9.688;2023-08-06T04:27:15;2.10;;;1.40;;
20609;SDS011;10463;52.378;9.688;2023-08-06T04:30:02;1.70;;;1.20;;
20609;SDS011;10463;52.378;9.688;2023-08-06T04:32:49;2.83;;;1.40;;
20609;SDS011;10463;52.378;9.688;2023-08-06T04:35:35;2.33;;;1.53;;
20609;SDS011;10463;52.378;9.688;2023-08-06T04:38:20;1.80;;;1.30;;
20609;SDS011;10463;52.378;9.688;2023-08-06T04:41:06;1.77;;;1.37;;
20609;SDS011;10463;52.378;9.688;2023-08-06T04:43:51;2.30;;;1.70;;
20609;SDS011;10463;52.378;9.688;2023-08-06T04:46:36;1.90;;;1.57;;
20609;SDS011;10463;52.378;9.688;2023-08-06T04:49:21;2.33;;;1.53;;
20609;SDS011;10463;52.378;9.688;2023-08-06T04:52:06;6.30;;;1.40;;
20609;SDS011;10463;52.378;9.688;2023-08-06T04:54:50;2.00;;;1.40;;
20609;SDS011;10463;52.378;9.688;2023-08-06T04:57:36;2.10;;;1.53;;
20609;SDS011;10463;52.378;9.688;2023-08-06T05:00:21;1.70;;;1.30;;
20609;SDS011;10463;52.378;9.688;2023-08-06T05:03:05;1.70;;;1.37;;
20609;SDS011;10463;52.378;9.688;2023-08-06T05:05:51;1.83;;;1.37;;
20609;SDS011;10463;52.378;9.688;2023-08-06T05:08:36;2.83;;;1.40;;
20609;SDS011;10463;52.378;9.688;2023-08-06T05:11:21;1.90;;;1.50;;
20609;SDS011;10463;52.378;9.688;2023-08-06T05:14:07;1.87;;;1.20;;
20609;SDS011;10463;52.378;9.688;2023-08-06T05:16:51;1.90;;;1.47;;
20609;SDS011;10463;52.378;9.688;2023-08-06T05:19:36;2.20;;;1.50;;
20609;SDS011;10463;52.378;9.688;2023-08-06T05:22:21;2.30;;;1.43;;
20609;SDS011;10463;52.378;9.688;2023-08-06T05:25:06;2.23;;;1.30;;
20609;SDS011;10463;52.378;9.688;2023-08-06T05:27:51;2.73;;;1.43;;
20609;SDS011;10463;52.378;9.688;2023-08-06T05:30:40;2.60;;;1.37;;
20609;SDS011;10463;52.378;9.688;2023-08-06T05:33:26;1.80;;;1.53;;
20609;SDS011;10463;52.378;9.688;2023-08-06T05:36:11;2.07;;;1.27;;
20609;SDS011;10463;52.378;9.688;2023-08-06T05:38:55;2.10;;;1.60;;
20609;SDS011;10463;52.378;9.688;2023-08-06T05:41:40;1.70;;;1.40;;
20609;SDS011;10463;52.378;9.688;2023-08-06T05:44:24;3.23;;;1.60;;
20609;SDS011;10463;52.378;9.688;2023-08-06T05:47:10;1.97;;;1.57;;
20609;SDS011;10463;52.378;9.688;2023-08-06T05:49:55;2.23;;;1.63;;
20609;SDS011;10463;52.378;9.688;2023-08-06T05:52:40;2.10;;;1.50;;
20609;SDS011;10463;52.378;9.688;2023-08-06T05:55:25;1.87;;;1.43;;
20609;SDS011;10463;52.378;9.688;2023-08-06T05:58:10;2.13;;;1.53;;
20609;SDS011;10463;52.378;9.688;2023-08-06T06:00:54;2.33;;;1.53;;
20609;SDS011;10463;52.378;9.688;2023-08-06T06:03:40;2.20;;;1.60;;
20609;SDS011;10463;52.378;9.688;2023-08-06T06:06:25;1.70;;;1.30;;
20609;SDS011;10463;52.378;9.688;2023-08-06T06:09:10;1.90;;;1.50;;
20609;SDS011;10463;52.378;9.688;2023-08-06T06:11:54;2.00;;;1.50;;
20609;SDS011;10463;52.378;9.688;2023-08-06T06:14:39;2.00;;;1.53;;
20609;SDS011;10463;52.378;9.688;2023-08-06T06:17:23;2.03;;;1.57;;
20609;SDS011;10463;52.378;9.688;2023-08-06T06:20:10;2.50;;;1.63;;
20609;SDS011;10463;52.378;9.688;2023-08-06T06:22:55;1.90;;;1.20;;
20609;SDS011;10463;52.378;9.688;2023-08-06T06:25:42;2.20;;;1.53;;
20609;SDS011;10463;52.378;9.688;2023-08-06T06:28:27;2.00;;;1.40;;
20609;SDS011;10463;52.378;9.688;2023-08-06T06:31:12;2.27;;;1.40;;
20609;SDS011;10463;52.378;9.688;2023-08-06T06:33:56;1.97;;;1.50;;
20609;SDS011;10463;52.378;9.688;2023-08-06T06:36:43;1.90;;;1.57;;
20609;SDS011;10463;52.378;9.688;2023-08-06T06:39:28;2.10;;;1.50;;
20609;SDS011;10463;52.378;9.688;2023-08-06T06:42:13;1.90;;;1.60;;
20609;SDS011;10463;52.378;9.688;2023-08-06T06:45:03;2.30;;;1.70;;
20609;SDS011;10463;52.378;9.688;2023-08-06T06:47:48;2.20;;;1.70;;
20609;SDS011;10463;52.378;9.688;2023-08-06T06:50:33;2.10;;;1.50;;
20609;SDS011;10463;52.378;9.688;2023-08-06T06:53:21;2.10;;;1.50;;
20609;SDS011;10463;52.378;9.688;2023-08-06T06:56:12;1.87;;;1.50;;
20609;SDS011;10463;52.378;9.688;2023-08-06T06:58:56;1.83;;;1.33;;
20609;SDS011;10463;52.378;9.688;2023-08-06T07:01:41;2.20;;;1.53;;
20609;SDS011;10463;52.378;9.688;2023-08-06T07:04:26;1.83;;;1.23;;
20609;SDS011;10463;52.378;9.688;2023-08-06T07:07:11;4.40;;;1.50;;
20609;SDS011;10463;52.378;9.688;2023-08-06T07:09:56;2.00;;;1.40;;
20609;SDS011;10463;52.378;9.688;2023-08-06T07:12:41;2.33;;;1.70;;
20609;SDS011;10463;52.378;9.688;2023-08-06T07:15:26;2.13;;;1.50;;
20609;SDS011;10463;52.378;9.688;2023-08-06T07:18:11;1.90;;;1.40;;
20609;SDS011;10463;52.378;9.688;2023-08-06T07:20:55;1.40;;;1.20;;
20609;SDS011;10463;52.378;9.688;2023-08-06T07:23:40;1.83;;;1.47;;
20609;SDS011;10463;52.378;9.688;2023-08-06T07:26:26;1.67;;;1.13;;
20609;SDS011;10463;52.378;9.688;2023-08-06T07:29:11;1.67;;;1.23;;
20609;SDS011;10463;52.378;9.688;2023-08-06T07:31:55;2.33;;;1.27;;
20609;SDS011;10463;52.378;9.688;2023-08-06T07:34:40;2.10;;;1.57;;
20609;SDS011;10463;52.378;9.688;2023-08-06T07:37:25;2.13;;;1.20;;
20609;SDS011;10463;52.378;9.688;2023-08-06T07:40:12;2.10;;;1.43;;
20609;SDS011;10463;52.378;9.688;2023-08-06T07:42:58;1.77;;;1.40;;
20609;SDS011;10463;52.378;9.688;2023-08-06T07:45:43;1.77;;;1.10;;
20609;SDS011;10463;52.378;9.688;2023-08-06T07:48:28;2.00;;;1.30;;
20609;SDS011;10463;52.378;9.688;2023-08-06T07:51:13;1.80;;;1.20;;
20609;SDS011;10463;52.378;9.688;2023-08-06T07:53:57;1.77;;;1.50;;
20609;SDS011;10463;52.378;9.688;2023-08-06T07:56:42;2.17;;;1.60;;
20609;SDS011;10463;52.378;9.688;2023-08-06T07:59:28;1.90;;;1.40;;
20609;SDS011;10463;52.378;9.688;2023-08-06T08:02:13;1.90;;;1.20;;
20609;SDS011;10463;52.378;9.688;2023-08-06T08:04:57;2.93;;;1.27;;
20609;SDS011;10463;52.378;9.688;2023-08-06T08:07:42;1.80;;;1.30;;
20609;SDS011;10463;52.378;9.688;2023-08-06T08:10:28;2.00;;;1.60;;
20609;SDS011;10463;52.378;9.688;2023-08-06T08:13:12;2.13;;;1.60;;
20609;SDS011;10463;52.378;9.688;2023-08-06T08:15:58;2.90;;;1.20;;
20609;SDS011;10463;52.378;9.688;2023-08-06T08:18:43;2.10;;;1.57;;
20609;SDS011;10463;52.378;9.688;2023-08-06T08:21:28;2.40;;;1.57;;
20609;SDS011;10463;52.378;9.688;2023-08-06T08:24:12;2.23;;;1.70;;
20609;SDS011;10463;52.378;9.688;2023-08-06T08:26:57;2.13;;;1.53;;
20609;SDS011;10463;52.378;9.688;2023-08-06T08:29:42;1.83;;;1.50;;
20609;SDS011;10463;52.378;9.688;2023-08-06T08:32:28;3.50;;;1.50;;
20609;SDS011;10463;52.378;9.688;2023-08-06T08:35:13;1.97;;;1.37;;
20609;SDS011;10463;52.378;9.688;2023-08-06T08:37:59;2.13;;;1.23;;
20609;SDS011;10463;52.378;9.688;2023-08-06T08:40:46;1.60;;;1.20;;
20609;SDS011;10463;52.378;9.688;2023-08-06T08:43:31;2.20;;;1.60;;
20609;SDS011;10463;52.378;9.688;2023-08-06T08:46:17;1.80;;;1.30;;
20609;SDS011;10463;52.378;9.688;2023-08-06T08:49:04;3.10;;;1.80;;
20609;SDS011;10463;52.378;9.688;2023-08-06T08:51:49;1.80;;;1.40;;
20609;SDS011;10463;52.378;9.688;2023-08-06T08:54:36;1.70;;;1.40;;
20609;SDS011;10463;52.378;9.688;2023-08-06T08:57:22;2.00;;;1.33;;
20609;SDS011;10463;52.378;9.688;2023-08-06T09:00:08;1.90;;;1.33;;
20609;SDS011;10463;52.378;9.688;2023-08-06T09:02:53;2.10;;;1.60;;
20609;SDS011;10463;52.378;9.688;2023-08-06T09:05:41;2.47;;;1.73;;
20609;SDS011;10463;52.378;9.688;2023-08-06T09:08:32;2.03;;;1.73;;
20609;SDS011;10463;52.378;9.688;2023-08-06T09:11:20;3.10;;;1.50;;
20609;SDS011;10463;52.378;9.688;2023-08-06T09:14:06;1.90;;;1.50;;
20609;SDS011;10463;52.378;9.688;2023-08-06T09:16:52;1.80;;;1.43;;
20609;SDS011;10463;52.378;9.688;2023-08-06T09:19:37;1.80;;;1.50;;
20609;SDS011;10463;52.378;9.688;2023-08-06T09:22:34;1.70;;;1.43;;
20609;SDS011;10463;52.378;9.688;2023-08-06T09:25:21;2.60;;;1.40;;
20609;SDS011;10463;52.378;9.688;2023-08-06T09:28:08;2.07;;;1.10;;
20609;SDS011;10463;52.378;9.688;2023-08-06T09:30:53;2.10;;;1.70;;
20609;SDS011;10463;52.378;9.688;2023-08-06T09:33:39;2.30;;;1.70;;
20609;SDS011;10463;52.378;9.688;2023-08-06T09:36:24;1.60;;;1.40;;
20609;SDS011;10463;52.378;9.688;2023-08-06T09:39:14;1.67;;;1.37;;
20609;SDS011;10463;52.378;9.688;2023-08-06T09:42:00;1.90;;;1.50;;
20609;SDS011;10463;52.378;9.688;2023-08-06T09:44:46;1.90;;;1.40;;
20609;SDS011;10463;52.378;9.688;2023-08-06T09:47:30;2.00;;;1.60;;
20609;SDS011;10463;52.378;9.688;2023-08-06T09:50:16;1.90;;;1.50;;
20609;SDS011;10463;52.378;9.688;2023-08-06T09:53:02;1.80;;;1.40;;
20609;SDS011;10463;52.378;9.688;2023-08-06T09:55:50;1.67;;;1.23;;
20609;SDS011;10463;52.378;9.688;2023-08-06T09:58:35;1.60;;;1.17;;
20609;SDS011;10463;52.378;9.688;2023-08-06T10:01:22;2.03;;;1.37;;
20609;SDS011;10463;52.378;9.688;2023-08-06T10:04:07;3.40;;;1.53;;
20609;SDS011;10463;52.378;9.688;2023-08-06T10:06:52;1.97;;;1.57;;
20609;SDS011;10463;52.378;9.688;2023-08-06T10:09:37;1.70;;;1.40;;
20609;SDS011;10463;52.378;9.688;2023-08-06T10:12:23;1.80;;;1.50;;
20609;SDS011;10463;52.378;9.688;2023-08-06T10:15:10;2.00;;;1.50;;
20609;SDS011;10463;52.378;9.688;2023-08-06T10:17:59;1.70;;;1.60;;
20609;SDS011;10463;52.378;9.688;2023-08-06T10:20:45;2.80;;;1.50;;
20609;SDS011;10463;52.378;9.688;2023-08-06T10:23:33;1.93;;;1.50;;
20609;SDS011;10463;52.378;9.688;2023-08-06T10:26:19;1.73;;;1.37;;
20609;SDS011;10463;52.378;9.688;2023-08-06T10:29:36;2.80;;;1.90;;
20609;SDS011;10463;52.378;9.688;2023-08-06T10:32:21;2.03;;;1.60;;
20609;SDS011;10463;52.378;9.688;2023-08-06T10:35:34;3.20;;;1.63;;
20609;SDS011;10463;52.378;9.688;2023-08-06T10:38:20;1.83;;;1.53;;
20609;SDS011;10463;52.378;9.688;2023-08-06T10:41:06;2.00;;;1.33;;
20609;SDS011;10463;52.378;9.688;2023-08-06T10:43:51;2.73;;;1.70;;
20609;SDS011;10463;52.378;9.688;2023-08-06T10:46:36;2.90;;;1.80;;
20609;SDS011;10463;52.378;9.688;2023-08-06T10:49:21;2.07;;;1.53;;
20609;SDS011;10463;52.378;9.688;2023-08-06T10:52:07;2.10;;;1.80;;
20609;SDS011;10463;52.378;9.688;2023-08-06T10:54:53;2.10;;;1.43;;
20609;SDS011;10463;52.378;9.688;2023-08-06T10:57:39;2.13;;;1.47;;
20609;SDS011;10463;52.378;9.688;2023-08-06T11:00:24;1.70;;;1.30;;
20609;SDS011;10463;52.378;9.688;2023-08-06T11:03:09;2.17;;;1.53;;
20609;SDS011;10463;52.378;9.688;2023-08-06T11:05:54;2.10;;;1.70;;
20609;SDS011;10463;52.378;9.688;2023-08-06T11:08:40;2.00;;;1.50;;
20609;SDS011;10463;52.378;9.688;2023-08-06T11:11:32;1.90;;;1.40;;
20609;SDS011;10463;52.378;9.688;2023-08-06T11:14:16;1.80;;;1.47;;
20609;SDS011;10463;52.378;9.688;2023-08-06T11:17:01;1.80;;;1.50;;
20609;SDS011;10463;52.378;9.688;2023-08-06T11:19:46;2.23;;;1.70;;
20609;SDS011;10463;52.378;9.688;2023-08-06T11:22:31;2.20;;;1.80;;
20609;SDS011;10463;52.378;9.688;2023-08-06T11:25:20;2.27;;;1.77;;
20609;SDS011;10463;52.378;9.688;2023-08-06T11:28:05;2.03;;;1.83;;
20609;SDS011;10463;52.378;9.688;2023-08-06T11:30:51;2.00;;;1.57;;
20609;SDS011;10463;52.378;9.688;2023-08-06T11:33:35;2.53;;;1.63;;
20609;SDS011;10463;52.378;9.688;2023-08-06T11:36:30;2.07;;;1.47;;
20609;SDS011;10463;52.378;9.688;2023-08-06T11:39:15;2.10;;;1.73;;
20609;SDS011;10463;52.378;9.688;2023-08-06T11:42:04;2.40;;;2.10;;
20609;SDS011;10463;52.378;9.688;2023-08-06T11:44:49;4.27;;;2.20;;
20609;SDS011;10463;52.378;9.688;2023-08-06T11:47:34;2.80;;;1.90;;
20609;SDS011;10463;52.378;9.688;2023-08-06T11:50:22;2.30;;;2.10;;
20609;SDS011;10463;52.378;9.688;2023-08-06T11:53:12;2.40;;;2.10;;
20609;SDS011;10463;52.378;9.688;2023-08-06T11:56:00;2.40;;;1.80;;
20609;SDS011;10463;52.378;9.688;2023-08-06T11:58:46;2.87;;;2.27;;
20609;SDS011;10463;52.378;9.688;2023-08-06T12:01:31;2.77;;;2.47;;
20609;SDS011;10463;52.378;9.688;2023-08-06T12:04:15;2.43;;;1.77;;
20609;SDS011;10463;52.378;9.688;2023-08-06T12:07:06;2.40;;;2.20;;
20609;SDS011;10463;52.378;9.688;2023-08-06T12:09:54;2.67;;;2.30;;
20609;SDS011;10463;52.378;9.688;2023-08-06T12:12:39;3.10;;;2.37;;
20609;SDS011;10463;52.378;9.688;2023-08-06T12:15:25;2.90;;;2.60;;
20609;SDS011;10463;52.378;9.688;2023-08-06T12:18:10;3.40;;;2.30;;
20609;SDS011;10463;52.378;9.688;2023-08-06T12:20:54;2.60;;;2.03;;
20609;SDS011;10463;52.378;9.688;2023-08-06T12:23:39;2.93;;;2.30;;
20609;SDS011;10463;52.378;9.688;2023-08-06T12:26:23;3.33;;;2.90;;
20609;SDS011;10463;52.378;9.688;2023-08-06T12:29:08;3.00;;;2.37;;
20609;SDS011;10463;52.378;9.688;2023-08-06T12:31:54;2.97;;;2.50;;
20609;SDS011;10463;52.378;9.688;2023-08-06T12:34:39;3.23;;;2.30;;
20609;SDS011;10463;52.378;9.688;2023-08-06T12:37:25;2.20;;;2.00;;
20609;SDS011;10463;52.378;9.688;2023-08-06T12:40:10;2.67;;;2.20;;
20609;SDS011;10463;52.378;9.688;2023-08-06T12:42:54;2.43;;;2.10;;
20609;SDS011;10463;52.378;9.688;2023-08-06T12:45:39;2.77;;;2.47;;
20609;SDS011;10463;52.378;9.688;2023-08-06T12:48:25;2.43;;;2.10;;
20609;SDS011;10463;52.378;9.688;2023-08-06T12:51:10;3.03;;;2.40;;
20609;SDS011;10463;52.378;9.688;2023-08-06T12:53:55;2.83;;;2.40;;
20609;SDS011;10463;52.378;9.688;2023-08-06T12:56:39;2.60;;;2.40;;
20609;SDS011;10463;52.378;9.688;2023-08-06T12:59:24;2.27;;;2.07;;
20609;SDS011;10463;52.378;9.688;2023-08-06T13:02:09;2.53;;;2.03;;
20609;SDS011;10463;52.378;9.688;2023-08-06T13:04:55;2.00;;;1.70;;
20609;SDS011;10463;52.378;9.688;2023-08-06T13:07:39;3.03;;;2.20;;
20609;SDS011;10463;52.378;9.688;2023-08-06T13:10:24;2.50;;;1.83;;
20609;SDS011;10463;52.378;9.688;2023-08-06T13:13:10;2.00;;;1.80;;
20609;SDS011;10463;52.378;9.688;2023-08-06T13:15:54;3.53;;;2.10;;
20609;SDS011;10463;52.378;9.688;2023-08-06T13:18:39;2.10;;;1.80;;
20609;SDS011;10463;52.378;9.688;2023-08-06T13:21:33;3.60;;;2.20;;
20609;SDS011;10463;52.378;9.688;2023-08-06T13:24:19;9.70;;;2.27;;
20609;SDS011;10463;52.378;9.688;2023-08-06T13:27:03;2.00;;;1.80;;
20609;SDS011;10463;52.378;9.688;2023-08-06T13:29:50;2.00;;;1.80;;
20609;SDS011;10463;52.378;9.688;2023-08-06T13:32:34;3.17;;;1.93;;
20609;SDS011;10463;52.378;9.688;2023-08-06T13:35:21;2.23;;;1.80;;
20609;SDS011;10463;52.378;9.688;2023-08-06T13:38:07;2.53;;;2.00;;
20609;SDS011;10463;52.378;9.688;2023-08-06T13:40:52;2.47;;;1.80;;
20609;SDS011;10463;52.378;9.688;2023-08-06T13:43:36;2.93;;;2.07;;
20609;SDS011;10463;52.378;9.688;2023-08-06T13:46:21;2.27;;;2.00;;
20609;SDS011;10463;52.378;9.688;2023-08-06T13:49:06;2.33;;;1.83;;
20609;SDS011;10463;52.378;9.688;2023-08-06T13:51:51;2.90;;;1.80;;
20609;SDS011;10463;52.378;9.688;2023-08-06T13:54:37;1.90;;;1.70;;
20609;SDS011;10463;52.378;9.688;2023-08-06T13:57:22;5.27;;;1.80;;
20609;SDS011;10463;52.378;9.688;2023-08-06T14:00:07;2.20;;;1.90;;
20609;SDS011;10463;52.378;9.688;2023-08-06T14:03:00;1.60;;;1.43;;
20609;SDS011;10463;52.378;9.688;2023-08-06T14:05:44;2.33;;;2.03;;
20609;SDS011;10463;52.378;9.688;2023-08-06T14:08:29;2.50;;;1.47;;
20609;SDS011;10463;52.378;9.688;2023-08-06T14:11:15;2.20;;;1.70;;
20609;SDS011;10463;52.378;9.688;2023-08-06T14:13:59;2.53;;;2.27;;
20609;SDS011;10463;52.378;9.688;2023-08-06T14:16:44;3.70;;;1.60;;
20609;SDS011;10463;52.378;9.688;2023-08-06T14:19:29;2.43;;;1.90;;
20609;SDS011;10463;52.378;9.688;2023-08-06T14:22:14;2.67;;;1.63;;
20609;SDS011;10463;52.378;9.688;2023-08-06T14:24:59;2.50;;;2.30;;
20609;SDS011;10463;52.378;9.688;2023-08-06T14:27:45;2.03;;;1.83;;
20609;SDS011;10463;52.378;9.688;2023-08-06T14:30:30;2.20;;;1.80;;
20609;SDS011;10463;52.378;9.688;2023-08-06T14:33:14;2.60;;;1.90;;
20609;SDS011;10463;52.378;9.688;2023-08-06T14:35:59;1.80;;;1.60;;
20609;SDS011;10463;52.378;9.688;2023-08-06T14:38:44;1.83;;;1.50;;
20609;SDS011;10463;52.378;9.688;2023-08-06T14:41:29;2.47;;;2.27;;
20609;SDS011;10463;52.378;9.688;2023-08-06T14:44:15;2.37;;;1.80;;
20609;SDS011;10463;52.378;9.688;2023-08-06T14:46:59;2.17;;;1.90;;
20609;SDS011;10463;52.378;9.688;2023-08-06T14:49:44;2.20;;;1.80;;
20609;SDS011;10463;52.378;9.688;2023-08-06T14:52:29;2.00;;;1.67;;
20609;SDS011;10463;52.378;9.688;2023-08-06T14:55:17;2.40;;;1.80;;
20609;SDS011;10463;52.378;9.688;2023-08-06T14:58:08;2.37;;;2.00;;
20609;SDS011;10463;52.378;9.688;2023-08-06T15:00:54;2.00;;;1.60;;
20609;SDS011;10463;52.378;9.688;2023-08-06T15:03:39;2.10;;;1.90;;
20609;SDS011;10463;52.378;9.688;2023-08-06T15:06:23;2.87;;;1.90;;
20609;SDS011;10463;52.378;9.688;2023-08-06T15:09:08;2.53;;;2.07;;
20609;SDS011;10463;52.378;9.688;2023-08-06T15:11:53;2.37;;;1.93;;
20609;SDS011;10463;52.378;9.688;2023-08-06T15:14:38;2.37;;;1.77;;
20609;SDS011;10463;52.378;9.688;2023-08-06T15:17:24;2.20;;;1.80;;
20609;SDS011;10463;52.378;9.688;2023-08-06T15:20:11;2.67;;;2.30;;
20609;SDS011;10463;52.378;9.688;2023-08-06T15:22:56;3.93;;;2.47;;
20609;SDS011;10463;52.378;9.688;2023-08-06T15:25:42;2.43;;;2.00;;
20609;SDS011;10463;52.378;9.688;2023-08-06T15:28:26;3.07;;;2.40;;
20609;SDS011;10463;52.378;9.688;2023-08-06T15:31:11;2.37;;;2.17;;
20609;SDS011;10463;52.378;9.688;2023-08-06T15:33:57;2.70;;;2.10;;
20609;SDS011;10463;52.378;9.688;2023-08-06T15:36:42;2.90;;;2.57;;
20609;SDS011;10463;52.378;9.688;2023-08-06T15:39:26;2.50;;;2.13;;
20609;SDS011;10463;52.378;9.688;2023-08-06T15:42:11;2.43;;;2.07;;
20609;SDS011;10463;52.378;9.688;2023-08-06T15:44:56;2.53;;;2.13;;
20609;SDS011;10463;52.378;9.688;2023-08-06T15:47:41;3.17;;;2.40;;
20609;SDS011;10463;52.378;9.688;2023-08-06T15:50:28;2.30;;;1.90;;
20609;SDS011;10463;52.378;9.688;2023-08-06T15:53:12;4.30;;;2.17;;
20609;SDS011;10463;52.378;9.688;2023-08-06T15:55:57;2.80;;;2.13;;
20609;SDS011;10463;52.378;9.688;2023-08-06T15:58:42;1.90;;;1.60;;
20609;SDS011;10463;52.378;9.688;2023-08-06T16:01:26;3.47;;;2.70;;
20609;SDS011;10463;52.378;9.688;2023-08-06T16:04:11;2.70;;;2.50;;
20609;SDS011;10463;52.378;9.688;2023-08-06T16:06:57;2.80;;;2.27;;
20609;SDS011;10463;52.378;9.688;2023-08-06T16:09:42;2.30;;;1.90;;
20609;SDS011;10463;52.378;9.688;2023-08-06T16:12:27;2.80;;;1.90;;
20609;SDS011;10463;52.378;9.688;2023-08-06T16:15:12;2.40;;;1.97;;
20609;SDS011;10463;52.378;9.688;2023-08-06T16:18:03;2.53;;;2.10;;
20609;SDS011;10463;52.378;9.688;2023-08-06T16:20:48;2.50;;;1.93;;
20609;SDS011;10463;52.378;9.688;2023-08-06T16:23:33;2.53;;;2.33;;
20609;SDS011;10463;52.378;9.688;2023-08-06T16:26:18;2.57;;;2.30;;
20609;SDS011;10463;52.378;9.688;2023-08-06T16:29:03;2.40;;;1.77;;
20609;SDS011;10463;52.378;9.688;2023-08-06T16:31:48;2.70;;;2.20;;
20609;SDS011;10463;52.378;9.688;2023-08-06T16:34:33;2.33;;;2.13;;
20609;SDS011;10463;52.378;9.688;2023-08-06T16:37:17;2.23;;;1.83;;
20609;SDS011;10463;52.378;9.688;2023-08-06T16:40:04;2.33;;;2.13;;